• Join FlightAware (Why Join?)
  • Login
  • US Flag 
12:53AM EST


 

Airport Tracker/Info


-or-


 

Live Flight TrackerFlight Track Log ✈ ACA831 ✈ 26-Apr-2013 ✈ CYUL - CYYZ

Flight Track Log - Related Links

Times and Time Zones

All times are in EDT time to prevent confusion due to time zone crossing. See the ACA831 flight status page for this flight to view local times or setup timezone preferences in your user account.

Time Position Orientation Groundspeed Altitude Reporting Facility
EDT Latitude Longitude Course Direction KTS MPH feet Rate Location/Type
04:11PM 45.4630 -73.7580 28° Northeast 155 178  Level FlightAware
04:11PM 45.4620 -73.7940 268° West 161 185 1,400 3,120 Climbing FlightAware
04:12PM 45.4610 -73.8180 267° West 163 188 2,900 3,000 Climbing FlightAware
04:12PM 45.4590 -73.8560 266° West 195 224 4,200 2,580 Climbing FlightAware
04:13PM 45.4560 -73.8900 263° West 228 262 5,300 2,520 Climbing FlightAware
04:13PM 45.4550 -73.9140 267° West 249 287 5,900 3,420 Climbing FlightAware
04:13PM 45.4520 -73.9660 265° West 261 300 7,900 3,900 Climbing FlightAware
04:14PM 45.4480 -74.0090 262° West 270 311 9,500 2,880 Climbing FlightAware
04:14PM 45.4420 -74.0960 264° West 323 372 11,300 3,060 Climbing FlightAware
04:15PM 45.4350 -74.1800 263° West 332 382 13,900 3,660 Climbing FlightAware
04:16PM 45.4280 -74.2820 264° West 346 398 16,500 3,360 Climbing FlightAware
04:17PM 45.4210 -74.3730 264° West 355 409 18,700 3,180 Climbing FlightAware
04:17PM 45.4110 -74.4610 261° West 364 419 20,800 2,880 Climbing FlightAware
04:18PM 45.3930 -74.5730 257° West 375 432 22,800 2,700 Climbing FlightAware
04:19PM 45.3750 -74.6760 256° West 382 440 24,700 2,580 Climbing FlightAware
04:19PM 45.3570 -74.7860 257° West 390 449 26,500 2,220 Climbing FlightAware
04:20PM 45.3400 -74.8870 257° West 398 458 27,900 2,100 Climbing FlightAware
04:21PM 45.3220 -74.9900 256° West 405 466 29,300 2,520 Climbing FlightAware
04:21PM 45.3020 -75.1070 256° West 396 456 31,500 2,520 Climbing FlightAware
04:22PM 45.2850 -75.2000 255° West 393 452 32,900 1,560 Climbing FlightAware
04:23PM 45.2620 -75.3340 256° West 395 455 34,000 660 Climbing FlightAware
04:24PM 45.2440 -75.4340 256° West 392 451 34,000  Level FlightAware
04:24PM 45.2250 -75.5440 256° West 388 447 34,000  Level FlightAware
04:25PM 45.2080 -75.6430 256° West 391 450 34,000  Level FlightAware
04:26PM 45.1880 -75.7490 255° West 392 451 34,000  Level FlightAware
04:26PM 45.1720 -75.8410 256° West 393 452 34,000  Level FlightAware
04:27PM 45.1520 -75.9500 255° West 397 457 34,000  Level FlightAware
04:28PM 45.1310 -76.0620 255° West 405 466 34,000  Level FlightAware
04:29PM 45.1130 -76.1650 256° West 407 468 34,000  Level FlightAware
04:29PM 45.0840 -76.2730 249° West 411 473 34,000  Level FlightAware
04:30PM 45.0430 -76.3790 241° Southwest 409 471 34,000  Level FlightAware
04:31PM 45.0030 -76.4790 241° Southwest 410 472 34,000  Level FlightAware
04:31PM 44.9670 -76.5690 241° Southwest 414 476 34,000  Level FlightAware
04:32PM 44.9230 -76.6790 241° Southwest 416 479 34,000  Level FlightAware
04:33PM 44.8830 -76.7780 240° Southwest 417 480 34,000  Level FlightAware
04:34PM 44.8420 -76.8820 241° Southwest 418 481 34,000  Level FlightAware
04:34PM 44.8110 -76.9600 241° Southwest 417 480 34,000  Level FlightAware
04:35PM 44.7680 -77.0660 240° Southwest 389 448 34,000  Level FlightAware
04:36PM 44.7320 -77.1600 242° Southwest 357 411 34,000  Level FlightAware
04:36PM 44.7040 -77.2350 242° Southwest 331 381 34,000  Level FlightAware
04:37PM 44.6680 -77.3230 240° Southwest 325 374 34,000  Level FlightAware
04:38PM 44.6420 -77.3840 239° Southwest 324 373 34,000  Level FlightAware
04:38PM 44.6080 -77.4640 239° Southwest 324 373 34,000  Level FlightAware
04:39PM 44.5720 -77.5480 239° Southwest 325 374 34,000 -120 Level FlightAware
04:40PM 44.5430 -77.6190 240° Southwest 322 371 33,900 -1,020 Descending FlightAware
04:41PM 44.5090 -77.7000 240° Southwest 320 368 32,600 -1,740 Descending FlightAware
04:41PM 44.4790 -77.7710 239° Southwest 315 362 31,500 -1,740 Descending FlightAware
04:42PM 44.4520 -77.8360 240° Southwest 318 366 30,300 -1,860 Descending FlightAware
04:43PM 44.4170 -77.9210 240° Southwest 315 362 28,900 -1,800 Descending FlightAware
04:43PM 44.3870 -77.9920 239° Southwest 311 358 27,800 -1,740 Descending FlightAware
04:44PM 44.3550 -78.0680 240° Southwest 310 357 26,500 -1,860 Descending FlightAware
04:45PM 44.3270 -78.1360 240° Southwest 311 358 25,200 -1,740 Descending FlightAware
04:46PM 44.2930 -78.2160 239° Southwest 328 377 24,100 -900 Descending FlightAware
04:46PM 44.2640 -78.2840 239° Southwest 330 380 24,000 -1,920 Descending FlightAware
04:47PM 44.2290 -78.3660 239° Southwest 361 415 21,600 -2,940 Descending FlightAware
04:48PM 44.1900 -78.4580 239° Southwest 365 420 19,600 -2,580 Descending FlightAware
04:48PM 44.1550 -78.5410 240° Southwest 361 415 18,000 -2,280 Descending FlightAware
04:49PM 44.1170 -78.6300 239° Southwest 355 409 16,400 -2,100 Descending FlightAware
04:50PM 44.0860 -78.7020 239° Southwest 351 404 15,100 -2,040 Descending FlightAware
04:50PM 44.0510 -78.7830 239° Southwest 341 392 13,700 -1,980 Descending FlightAware
04:51PM 44.0070 -78.8580 231° Southwest 338 389 12,300 -1,920 Descending FlightAware
04:52PM 43.9640 -78.9220 227° Southwest 329 379 11,000 -1,800 Descending FlightAware
04:53PM 43.9180 -78.9900 227° Southwest 317 365 9,800 -1,140 Descending FlightAware
04:53PM 43.8970 -79.0230 229° Southwest 295 339 9,700 -900 Descending FlightAware
04:53PM 43.8730 -79.0670 233° Southwest 250 288 9,000 -1,320 Descending FlightAware
04:54PM 43.8710 -79.1000 265° West 237 273 8,500 -1,800 Descending FlightAware
04:54PM 43.8780 -79.1450 282° West 228 262 7,400 -2,040 Descending FlightAware
04:55PM 43.8880 -79.1590 315° West 227 261 7,000 -1,680 Descending FlightAware
04:55PM 43.8980 -79.1690 324° Northwest 222 255 6,700 -1,680 Descending FlightAware
04:55PM 43.9180 -79.1990 313° West 206 237 5,900 -1,500 Descending FlightAware
04:55PM 43.9190 -79.2110 277° West 203 234 5,700 -1,020 Descending FlightAware
04:56PM 43.9150 -79.2350 257° West 198 228 5,400 -960 Descending FlightAware
04:56PM 43.9050 -79.2590 240° Southwest 202 232 5,000 -1,020 Descending FlightAware
04:57PM 43.8850 -79.2920 230° Southwest 202 232 4,500 -480 Descending FlightAware
04:57PM 43.8710 -79.3120 226° Southwest 181 208 4,600 60 Climbing FlightAware
04:58PM 43.8530 -79.3380 226° Southwest 177 204 4,600 -120 Level FlightAware
04:58PM 43.8370 -79.3610 226° Southwest 164 189 4,500 -600 Descending FlightAware
04:59PM 43.8250 -79.3790 227° Southwest 157 181 4,100 -900 Descending FlightAware
04:59PM 43.8100 -79.4000 225° Southwest 160 184 3,700 -600 Descending FlightAware
04:59PM 43.7970 -79.4200 228° Southwest 157 181 3,600 -480 Descending FlightAware
05:00PM 43.7830 -79.4410 227° Southwest 158 182 3,300 -720 Descending FlightAware
05:00PM 43.7690 -79.4610 226° Southwest 155 178 2,900 -900 Descending FlightAware
05:01PM 43.7550 -79.4810 226° Southwest 153 176 2,500 -960 Descending FlightAware
05:01PM 43.7430 -79.4990 227° Southwest 152 175 2,100 -900 Descending FlightAware
05:02PM 43.7290 -79.5190 226° Southwest 150 173 1,700 -840 Descending FlightAware
05:02PM 43.7140 -79.5420 228° Southwest 145 167 1,300 -840 Descending FlightAware
05:03PM 43.7070 -79.5510 223° Southwest 134 154 1,100 -780 Descending FlightAware
05:03PM 43.6970 -79.5660 227° Southwest 138 159 800 -720 Descending FlightAware